sensor_id;sensor_type;location;lat;lon;timestamp;pressure;altitude;pressure_sealevel;temperature
45850;BMP180;10739;52.198;20.908;2023-03-31T00:02:04;99166.00;;;13.60
45850;BMP180;10739;52.198;20.908;2023-03-31T00:04:42;99167.00;;;13.60
45850;BMP180;10739;52.198;20.908;2023-03-31T00:07:20;99172.00;;;13.50
45850;BMP180;10739;52.198;20.908;2023-03-31T00:09:50;99153.00;;;13.30
45850;BMP180;10739;52.198;20.908;2023-03-31T00:12:20;99161.00;;;13.60
45850;BMP180;10739;52.198;20.908;2023-03-31T00:14:47;99159.00;;;13.30
45850;BMP180;10739;52.198;20.908;2023-03-31T00:17:13;99160.00;;;13.40
45850;BMP180;10739;52.198;20.908;2023-03-31T00:19:40;99157.00;;;13.70
45850;BMP180;10739;52.198;20.908;2023-03-31T00:22:07;99168.00;;;13.50
45850;BMP180;10739;52.198;20.908;2023-03-31T00:24:35;99166.00;;;13.70
45850;BMP180;10739;52.198;20.908;2023-03-31T00:27:03;99172.00;;;13.60
45850;BMP180;10739;52.198;20.908;2023-03-31T00:29:31;99173.00;;;13.40
45850;BMP180;10739;52.198;20.908;2023-03-31T00:31:58;99177.00;;;13.40
45850;BMP180;10739;52.198;20.908;2023-03-31T00:34:26;99177.00;;;13.70
45850;BMP180;10739;52.198;20.908;2023-03-31T00:36:53;99172.00;;;13.60
45850;BMP180;10739;52.198;20.908;2023-03-31T00:39:22;99168.00;;;13.70
45850;BMP180;10739;52.198;20.908;2023-03-31T00:41:50;99161.00;;;13.70
45850;BMP180;10739;52.198;20.908;2023-03-31T00:44:21;99162.00;;;13.80
45850;BMP180;10739;52.198;20.908;2023-03-31T00:46:57;99166.00;;;13.80
45850;BMP180;10739;52.198;20.908;2023-03-31T00:49:36;99164.00;;;13.70
45850;BMP180;10739;52.198;20.908;2023-03-31T00:52:19;99165.00;;;13.80
45850;BMP180;10739;52.198;20.908;2023-03-31T00:54:53;99163.00;;;13.50
45850;BMP180;10739;52.198;20.908;2023-03-31T00:57:22;99164.00;;;13.40
45850;BMP180;10739;52.198;20.908;2023-03-31T01:00:03;99156.00;;;13.00
45850;BMP180;10739;52.198;20.908;2023-03-31T01:02:50;99165.00;;;13.50
45850;BMP180;10739;52.198;20.908;2023-03-31T01:05:26;99165.00;;;13.60
45850;BMP180;10739;52.198;20.908;2023-03-31T01:07:54;99162.00;;;13.40
45850;BMP180;10739;52.198;20.908;2023-03-31T01:10:21;99162.00;;;12.80
45850;BMP180;10739;52.198;20.908;2023-03-31T01:12:52;99157.00;;;13.20
45850;BMP180;10739;52.198;20.908;2023-03-31T01:15:20;99151.00;;;13.20
45850;BMP180;10739;52.198;20.908;2023-03-31T01:17:47;99156.00;;;13.10
45850;BMP180;10739;52.198;20.908;2023-03-31T01:26:43;99158.00;;;13.20
45850;BMP180;10739;52.198;20.908;2023-03-31T01:47:30;99147.00;;;12.60
45850;BMP180;10739;52.198;20.908;2023-03-31T01:50:22;99155.00;;;13.10
45850;BMP180;10739;52.198;20.908;2023-03-31T01:53:29;99165.00;;;13.00
45850;BMP180;10739;52.198;20.908;2023-03-31T01:56:09;99159.00;;;13.10
45850;BMP180;10739;52.198;20.908;2023-03-31T01:58:47;99150.00;;;13.00
45850;BMP180;10739;52.198;20.908;2023-03-31T02:01:55;99159.00;;;13.30
45850;BMP180;10739;52.198;20.908;2023-03-31T02:04:35;99157.00;;;13.00
45850;BMP180;10739;52.198;20.908;2023-03-31T02:07:12;99158.00;;;12.90
45850;BMP180;10739;52.198;20.908;2023-03-31T02:09:46;99158.00;;;12.80
45850;BMP180;10739;52.198;20.908;2023-03-31T02:12:15;99157.00;;;12.30
45850;BMP180;10739;52.198;20.908;2023-03-31T02:14:47;99165.00;;;12.90
45850;BMP180;10739;52.198;20.908;2023-03-31T02:17:25;99151.00;;;13.00
45850;BMP180;10739;52.198;20.908;2023-03-31T02:20:02;99156.00;;;13.30
45850;BMP180;10739;52.198;20.908;2023-03-31T02:22:37;99161.00;;;12.60
45850;BMP180;10739;52.198;20.908;2023-03-31T02:25:07;99161.00;;;13.00
45850;BMP180;10739;52.198;20.908;2023-03-31T02:27:42;99150.00;;;12.60
45850;BMP180;10739;52.198;20.908;2023-03-31T02:30:11;99166.00;;;12.90
45850;BMP180;10739;52.198;20.908;2023-03-31T02:32:40;99162.00;;;12.70
45850;BMP180;10739;52.198;20.908;2023-03-31T02:35:17;99160.00;;;13.00
45850;BMP180;10739;52.198;20.908;2023-03-31T02:37:45;99156.00;;;12.50
45850;BMP180;10739;52.198;20.908;2023-03-31T02:40:18;99159.00;;;13.10
45850;BMP180;10739;52.198;20.908;2023-03-31T02:42:44;99161.00;;;13.00
45850;BMP180;10739;52.198;20.908;2023-03-31T02:45:44;99157.00;;;12.80
45850;BMP180;10739;52.198;20.908;2023-03-31T02:48:24;99161.00;;;13.00
45850;BMP180;10739;52.198;20.908;2023-03-31T02:51:34;99151.00;;;13.00
45850;BMP180;10739;52.198;20.908;2023-03-31T03:00:40;99155.00;;;13.20
45850;BMP180;10739;52.198;20.908;2023-03-31T03:06:32;99151.00;;;12.60
45850;BMP180;10739;52.198;20.908;2023-03-31T03:12:12;99169.00;;;12.60
45850;BMP180;10739;52.198;20.908;2023-03-31T03:15:04;99176.00;;;12.90
45850;BMP180;10739;52.198;20.908;2023-03-31T03:17:38;99179.00;;;12.40
45850;BMP180;10739;52.198;20.908;2023-03-31T03:20:07;99180.00;;;12.40
45850;BMP180;10739;52.198;20.908;2023-03-31T03:22:39;99180.00;;;12.90
45850;BMP180;10739;52.198;20.908;2023-03-31T03:25:09;99176.00;;;12.70
45850;BMP180;10739;52.198;20.908;2023-03-31T03:27:37;99182.00;;;12.60
45850;BMP180;10739;52.198;20.908;2023-03-31T03:30:08;99184.00;;;13.00
45850;BMP180;10739;52.198;20.908;2023-03-31T03:32:35;99184.00;;;12.60
45850;BMP180;10739;52.198;20.908;2023-03-31T03:35:04;99189.00;;;12.50
45850;BMP180;10739;52.198;20.908;2023-03-31T03:37:32;99189.00;;;13.00
45850;BMP180;10739;52.198;20.908;2023-03-31T03:39:58;99186.00;;;13.00
45850;BMP180;10739;52.198;20.908;2023-03-31T03:42:24;99195.00;;;12.90
45850;BMP180;10739;52.198;20.908;2023-03-31T03:44:50;99191.00;;;12.60
45850;BMP180;10739;52.198;20.908;2023-03-31T03:47:17;99186.00;;;12.50
45850;BMP180;10739;52.198;20.908;2023-03-31T03:49:43;99189.00;;;12.30
45850;BMP180;10739;52.198;20.908;2023-03-31T03:52:09;99189.00;;;12.30
45850;BMP180;10739;52.198;20.908;2023-03-31T03:54:35;99194.00;;;12.40
45850;BMP180;10739;52.198;20.908;2023-03-31T03:57:02;99182.00;;;12.30
45850;BMP180;10739;52.198;20.908;2023-03-31T03:59:28;99190.00;;;12.50
45850;BMP180;10739;52.198;20.908;2023-03-31T04:01:54;99183.00;;;12.60
45850;BMP180;10739;52.198;20.908;2023-03-31T04:04:20;99192.00;;;12.30
45850;BMP180;10739;52.198;20.908;2023-03-31T04:06:47;99186.00;;;12.30
45850;BMP180;10739;52.198;20.908;2023-03-31T04:09:13;99188.00;;;12.50
45850;BMP180;10739;52.198;20.908;2023-03-31T04:11:39;99196.00;;;12.40
45850;BMP180;10739;52.198;20.908;2023-03-31T04:14:05;99188.00;;;12.10
45850;BMP180;10739;52.198;20.908;2023-03-31T04:16:32;99184.00;;;11.80
45850;BMP180;10739;52.198;20.908;2023-03-31T04:18:59;99187.00;;;11.90
45850;BMP180;10739;52.198;20.908;2023-03-31T04:21:29;99188.00;;;12.30
45850;BMP180;10739;52.198;20.908;2023-03-31T04:24:00;99182.00;;;12.00
45850;BMP180;10739;52.198;20.908;2023-03-31T04:26:33;99181.00;;;12.30
45850;BMP180;10739;52.198;20.908;2023-03-31T04:29:13;99194.00;;;12.40
45850;BMP180;10739;52.198;20.908;2023-03-31T04:31:42;99188.00;;;12.10
45850;BMP180;10739;52.198;20.908;2023-03-31T04:34:10;99192.00;;;12.40
45850;BMP180;10739;52.198;20.908;2023-03-31T04:36:45;99185.00;;;12.20
45850;BMP180;10739;52.198;20.908;2023-03-31T04:39:17;99184.00;;;12.20
45850;BMP180;10739;52.198;20.908;2023-03-31T04:41:52;99175.00;;;12.30
45850;BMP180;10739;52.198;20.908;2023-03-31T04:44:18;99182.00;;;12.10
45850;BMP180;10739;52.198;20.908;2023-03-31T04:46:45;99179.00;;;12.10
45850;BMP180;10739;52.198;20.908;2023-03-31T04:49:12;99178.00;;;12.40
45850;BMP180;10739;52.198;20.908;2023-03-31T04:51:38;99185.00;;;12.40
45850;BMP180;10739;52.198;20.908;2023-03-31T04:54:04;99177.00;;;12.10
45850;BMP180;10739;52.198;20.908;2023-03-31T04:56:31;99179.00;;;12.20
45850;BMP180;10739;52.198;20.908;2023-03-31T04:58:57;99179.00;;;12.60
45850;BMP180;10739;52.198;20.908;2023-03-31T05:01:23;99171.00;;;12.20
45850;BMP180;10739;52.198;20.908;2023-03-31T05:03:50;99169.00;;;12.50
45850;BMP180;10739;52.198;20.908;2023-03-31T05:06:16;99164.00;;;12.70
45850;BMP180;10739;52.198;20.908;2023-03-31T05:08:43;99173.00;;;12.40
45850;BMP180;10739;52.198;20.908;2023-03-31T05:11:09;99164.00;;;12.60
45850;BMP180;10739;52.198;20.908;2023-03-31T05:13:37;99177.00;;;12.80
45850;BMP180;10739;52.198;20.908;2023-03-31T05:16:13;99170.00;;;12.70
45850;BMP180;10739;52.198;20.908;2023-03-31T05:18:41;99176.00;;;12.80
45850;BMP180;10739;52.198;20.908;2023-03-31T05:21:16;99164.00;;;13.00
45850;BMP180;10739;52.198;20.908;2023-03-31T05:23:45;99166.00;;;12.70
45850;BMP180;10739;52.198;20.908;2023-03-31T05:26:12;99164.00;;;12.80
45850;BMP180;10739;52.198;20.908;2023-03-31T05:28:39;99161.00;;;13.10
45850;BMP180;10739;52.198;20.908;2023-03-31T05:31:07;99162.00;;;13.00
45850;BMP180;10739;52.198;20.908;2023-03-31T05:33:34;99164.00;;;12.70
45850;BMP180;10739;52.198;20.908;2023-03-31T05:36:16;99163.00;;;12.30
45850;BMP180;10739;52.198;20.908;2023-03-31T05:38:43;99145.00;;;12.50
45850;BMP180;10739;52.198;20.908;2023-03-31T05:41:10;99149.00;;;12.60
45850;BMP180;10739;52.198;20.908;2023-03-31T05:43:37;99147.00;;;12.90
45850;BMP180;10739;52.198;20.908;2023-03-31T05:46:04;99151.00;;;12.70
45850;BMP180;10739;52.198;20.908;2023-03-31T05:48:31;99146.00;;;12.60
45850;BMP180;10739;52.198;20.908;2023-03-31T05:50:58;99156.00;;;12.90
45850;BMP180;10739;52.198;20.908;2023-03-31T05:53:26;99144.00;;;12.60
45850;BMP180;10739;52.198;20.908;2023-03-31T05:56:00;99147.00;;;12.60
45850;BMP180;10739;52.198;20.908;2023-03-31T05:58:28;99149.00;;;13.10
45850;BMP180;10739;52.198;20.908;2023-03-31T06:03:35;99146.00;;;13.10
45850;BMP180;10739;52.198;20.908;2023-03-31T06:06:03;99142.00;;;13.20
45850;BMP180;10739;52.198;20.908;2023-03-31T06:08:31;99146.00;;;13.30
45850;BMP180;10739;52.198;20.908;2023-03-31T06:10:57;99133.00;;;13.20
45850;BMP180;10739;52.198;20.908;2023-03-31T06:13:25;99143.00;;;13.30
45850;BMP180;10739;52.198;20.908;2023-03-31T06:15:59;99140.00;;;13.50
45850;BMP180;10739;52.198;20.908;2023-03-31T06:18:31;99128.00;;;13.20
45850;BMP180;10739;52.198;20.908;2023-03-31T06:21:00;99142.00;;;13.10
45850;BMP180;10739;52.198;20.908;2023-03-31T06:23:27;99133.00;;;13.40
45850;BMP180;10739;52.198;20.908;2023-03-31T06:25:53;99138.00;;;13.60
45850;BMP180;10739;52.198;20.908;2023-03-31T06:28:20;99137.00;;;13.20
45850;BMP180;10739;52.198;20.908;2023-03-31T06:30:47;99134.00;;;13.60
45850;BMP180;10739;52.198;20.908;2023-03-31T06:33:15;99140.00;;;13.30
45850;BMP180;10739;52.198;20.908;2023-03-31T06:35:41;99147.00;;;13.30
45850;BMP180;10739;52.198;20.908;2023-03-31T06:38:07;99141.00;;;13.10
45850;BMP180;10739;52.198;20.908;2023-03-31T06:40:34;99140.00;;;13.60
45850;BMP180;10739;52.198;20.908;2023-03-31T06:43:00;99140.00;;;13.10
45850;BMP180;10739;52.198;20.908;2023-03-31T06:45:26;99145.00;;;13.50
45850;BMP180;10739;52.198;20.908;2023-03-31T06:47:55;99132.00;;;13.60
45850;BMP180;10739;52.198;20.908;2023-03-31T06:50:21;99135.00;;;13.30
45850;BMP180;10739;52.198;20.908;2023-03-31T06:52:47;99131.00;;;13.60
45850;BMP180;10739;52.198;20.908;2023-03-31T06:55:17;99135.00;;;13.30
45850;BMP180;10739;52.198;20.908;2023-03-31T06:57:43;99133.00;;;13.20
45850;BMP180;10739;52.198;20.908;2023-03-31T07:00:10;99133.00;;;13.40
45850;BMP180;10739;52.198;20.908;2023-03-31T07:02:36;99140.00;;;13.70
45850;BMP180;10739;52.198;20.908;2023-03-31T07:05:03;99129.00;;;13.10
45850;BMP180;10739;52.198;20.908;2023-03-31T07:07:31;99135.00;;;13.50
45850;BMP180;10739;52.198;20.908;2023-03-31T07:09:57;99138.00;;;13.70
45850;BMP180;10739;52.198;20.908;2023-03-31T07:12:24;99133.00;;;13.90
45850;BMP180;10739;52.198;20.908;2023-03-31T07:14:51;99125.00;;;14.10
45850;BMP180;10739;52.198;20.908;2023-03-31T07:17:17;99141.00;;;14.20
45850;BMP180;10739;52.198;20.908;2023-03-31T07:19:43;99129.00;;;14.90
45850;BMP180;10739;52.198;20.908;2023-03-31T07:22:14;99135.00;;;15.20
45850;BMP180;10739;52.198;20.908;2023-03-31T07:24:40;99141.00;;;15.10
45850;BMP180;10739;52.198;20.908;2023-03-31T07:27:07;99132.00;;;14.30
45850;BMP180;10739;52.198;20.908;2023-03-31T07:29:33;99124.00;;;14.20
45850;BMP180;10739;52.198;20.908;2023-03-31T07:31:59;99132.00;;;14.50
45850;BMP180;10739;52.198;20.908;2023-03-31T07:34:25;99131.00;;;14.30
45850;BMP180;10739;52.198;20.908;2023-03-31T07:36:54;99126.00;;;14.40
45850;BMP180;10739;52.198;20.908;2023-03-31T07:39:21;99128.00;;;14.80
45850;BMP180;10739;52.198;20.908;2023-03-31T07:41:47;99132.00;;;14.60
45850;BMP180;10739;52.198;20.908;2023-03-31T07:44:14;99131.00;;;14.70
45850;BMP180;10739;52.198;20.908;2023-03-31T07:46:42;99125.00;;;14.20
45850;BMP180;10739;52.198;20.908;2023-03-31T07:49:08;99124.00;;;14.30
45850;BMP180;10739;52.198;20.908;2023-03-31T07:51:35;99117.00;;;14.40
45850;BMP180;10739;52.198;20.908;2023-03-31T07:54:01;99124.00;;;14.40
45850;BMP180;10739;52.198;20.908;2023-03-31T07:56:28;99121.00;;;14.70
45850;BMP180;10739;52.198;20.908;2023-03-31T07:58:54;99108.00;;;14.80
45850;BMP180;10739;52.198;20.908;2023-03-31T08:01:21;99113.00;;;14.80
45850;BMP180;10739;52.198;20.908;2023-03-31T08:03:51;99100.00;;;14.90
45850;BMP180;10739;52.198;20.908;2023-03-31T08:06:23;99104.00;;;13.80
45850;BMP180;10739;52.198;20.908;2023-03-31T08:08:50;99101.00;;;13.60
45850;BMP180;10739;52.198;20.908;2023-03-31T08:11:17;99100.00;;;13.60
45850;BMP180;10739;52.198;20.908;2023-03-31T08:13:46;99101.00;;;14.10
45850;BMP180;10739;52.198;20.908;2023-03-31T08:16:13;99096.00;;;14.10
45850;BMP180;10739;52.198;20.908;2023-03-31T08:18:39;99099.00;;;13.80
45850;BMP180;10739;52.198;20.908;2023-03-31T08:21:06;99096.00;;;14.30
45850;BMP180;10739;52.198;20.908;2023-03-31T08:23:35;99090.00;;;14.20
45850;BMP180;10739;52.198;20.908;2023-03-31T08:26:17;99095.00;;;14.30
45850;BMP180;10739;52.198;20.908;2023-03-31T08:28:45;99093.00;;;14.10
45850;BMP180;10739;52.198;20.908;2023-03-31T08:31:13;99085.00;;;14.20
45850;BMP180;10739;52.198;20.908;2023-03-31T08:33:44;99079.00;;;14.30
45850;BMP180;10739;52.198;20.908;2023-03-31T08:36:11;99075.00;;;14.80
45850;BMP180;10739;52.198;20.908;2023-03-31T08:38:41;99072.00;;;15.10
45850;BMP180;10739;52.198;20.908;2023-03-31T08:43:59;99059.00;;;15.60
45850;BMP180;10739;52.198;20.908;2023-03-31T08:46:29;99071.00;;;15.60
45850;BMP180;10739;52.198;20.908;2023-03-31T08:48:59;99065.00;;;15.60
45850;BMP180;10739;52.198;20.908;2023-03-31T08:51:35;99066.00;;;15.60
45850;BMP180;10739;52.198;20.908;2023-03-31T08:56:50;99049.00;;;15.20
45850;BMP180;10739;52.198;20.908;2023-03-31T08:59:27;99048.00;;;15.70
45850;BMP180;10739;52.198;20.908;2023-03-31T09:02:20;99056.00;;;15.60
45850;BMP180;10739;52.198;20.908;2023-03-31T09:05:15;99042.00;;;15.50
45850;BMP180;10739;52.198;20.908;2023-03-31T09:08:23;99040.00;;;16.00
45850;BMP180;10739;52.198;20.908;2023-03-31T09:19:37;99038.00;;;15.90
45850;BMP180;10739;52.198;20.908;2023-03-31T09:22:26;99036.00;;;16.50
45850;BMP180;10739;52.198;20.908;2023-03-31T09:25:25;99034.00;;;16.10
45850;BMP180;10739;52.198;20.908;2023-03-31T09:27:55;99036.00;;;15.90
45850;BMP180;10739;52.198;20.908;2023-03-31T09:30:29;99023.00;;;16.00
45850;BMP180;10739;52.198;20.908;2023-03-31T09:33:25;99025.00;;;16.50
45850;BMP180;10739;52.198;20.908;2023-03-31T09:35:58;99029.00;;;16.10
45850;BMP180;10739;52.198;20.908;2023-03-31T09:38:26;99030.00;;;16.10
45850;BMP180;10739;52.198;20.908;2023-03-31T09:41:02;99031.00;;;16.30
45850;BMP180;10739;52.198;20.908;2023-03-31T09:43:33;99041.00;;;16.60
45850;BMP180;10739;52.198;20.908;2023-03-31T09:46:25;99031.00;;;16.90
45850;BMP180;10739;52.198;20.908;2023-03-31T09:49:19;99028.00;;;17.60
45850;BMP180;10739;52.198;20.908;2023-03-31T09:51:57;99034.00;;;16.80
45850;BMP180;10739;52.198;20.908;2023-03-31T09:54:39;99028.00;;;16.80
45850;BMP180;10739;52.198;20.908;2023-03-31T09:57:28;99021.00;;;16.70
45850;BMP180;10739;52.198;20.908;2023-03-31T10:00:17;99018.00;;;16.50
45850;BMP180;10739;52.198;20.908;2023-03-31T10:02:56;99018.00;;;16.30
45850;BMP180;10739;52.198;20.908;2023-03-31T10:05:55;99013.00;;;16.80
45850;BMP180;10739;52.198;20.908;2023-03-31T10:08:42;99013.00;;;16.80
45850;BMP180;10739;52.198;20.908;2023-03-31T10:11:12;98991.00;;;17.30
45850;BMP180;10739;52.198;20.908;2023-03-31T10:16:34;99003.00;;;17.50
45850;BMP180;10739;52.198;20.908;2023-03-31T10:19:26;98989.00;;;17.10
45850;BMP180;10739;52.198;20.908;2023-03-31T10:22:37;98989.00;;;16.90
45850;BMP180;10739;52.198;20.908;2023-03-31T10:25:18;98994.00;;;17.50
45850;BMP180;10739;52.198;20.908;2023-03-31T10:27:53;98977.00;;;17.60
45850;BMP180;10739;52.198;20.908;2023-03-31T10:30:25;98963.00;;;18.30
45850;BMP180;10739;52.198;20.908;2023-03-31T10:32:54;98969.00;;;17.90
45850;BMP180;10739;52.198;20.908;2023-03-31T10:35:32;98970.00;;;18.10
45850;BMP180;10739;52.198;20.908;2023-03-31T10:38:06;98969.00;;;18.00
45850;BMP180;10739;52.198;20.908;2023-03-31T10:40:36;98968.00;;;17.90
45850;BMP180;10739;52.198;20.908;2023-03-31T10:43:40;98961.00;;;18.40
45850;BMP180;10739;52.198;20.908;2023-03-31T10:46:08;98960.00;;;18.50
45850;BMP180;10739;52.198;20.908;2023-03-31T10:48:37;98965.00;;;18.20
45850;BMP180;10739;52.198;20.908;2023-03-31T10:51:15;98967.00;;;18.20
45850;BMP180;10739;52.198;20.908;2023-03-31T10:53:51;98965.00;;;18.10
45850;BMP180;10739;52.198;20.908;2023-03-31T10:56:30;98965.00;;;17.70
45850;BMP180;10739;52.198;20.908;2023-03-31T11:02:20;98948.00;;;18.50
45850;BMP180;10739;52.198;20.908;2023-03-31T11:05:16;98950.00;;;17.90
45850;BMP180;10739;52.198;20.908;2023-03-31T11:08:01;98948.00;;;17.90
45850;BMP180;10739;52.198;20.908;2023-03-31T11:20:49;98921.00;;;19.50
45850;BMP180;10739;52.198;20.908;2023-03-31T11:29:28;98917.00;;;19.00
45850;BMP180;10739;52.198;20.908;2023-03-31T11:38:19;98918.00;;;18.30
45850;BMP180;10739;52.198;20.908;2023-03-31T11:44:14;98919.00;;;17.70
45850;BMP180;10739;52.198;20.908;2023-03-31T11:46:53;98910.00;;;17.80
45850;BMP180;10739;52.198;20.908;2023-03-31T11:49:36;98904.00;;;18.10
45850;BMP180;10739;52.198;20.908;2023-03-31T11:52:16;98911.00;;;17.90
45850;BMP180;10739;52.198;20.908;2023-03-31T11:54:55;98903.00;;;17.70
45850;BMP180;10739;52.198;20.908;2023-03-31T12:00:43;98897.00;;;18.20
45850;BMP180;10739;52.198;20.908;2023-03-31T12:03:32;98893.00;;;18.70
45850;BMP180;10739;52.198;20.908;2023-03-31T12:06:10;98893.00;;;18.80
45850;BMP180;10739;52.198;20.908;2023-03-31T12:14:36;98870.00;;;19.60
45850;BMP180;10739;52.198;20.908;2023-03-31T12:17:17;98874.00;;;19.70
45850;BMP180;10739;52.198;20.908;2023-03-31T12:22:44;98861.00;;;19.20
45850;BMP180;10739;52.198;20.908;2023-03-31T12:25:19;98861.00;;;18.90
45850;BMP180;10739;52.198;20.908;2023-03-31T12:27:48;98855.00;;;19.00
45850;BMP180;10739;52.198;20.908;2023-03-31T12:33:02;98843.00;;;19.30
45850;BMP180;10739;52.198;20.908;2023-03-31T12:38:42;98843.00;;;19.60
45850;BMP180;10739;52.198;20.908;2023-03-31T12:44:50;98844.00;;;19.00
45850;BMP180;10739;52.198;20.908;2023-03-31T12:47:29;98839.00;;;19.40
45850;BMP180;10739;52.198;20.908;2023-03-31T12:55:49;98828.00;;;19.30
45850;BMP180;10739;52.198;20.908;2023-03-31T13:01:20;98825.00;;;19.30
45850;BMP180;10739;52.198;20.908;2023-03-31T13:09:00;98811.00;;;19.40
45850;BMP180;10739;52.198;20.908;2023-03-31T13:14:23;98802.00;;;18.30
45850;BMP180;10739;52.198;20.908;2023-03-31T13:17:17;98800.00;;;18.60
45850;BMP180;10739;52.198;20.908;2023-03-31T13:19:45;98798.00;;;18.80
45850;BMP180;10739;52.198;20.908;2023-03-31T13:22:36;98798.00;;;18.30
45850;BMP180;10739;52.198;20.908;2023-03-31T13:27:58;98803.00;;;17.80
45850;BMP180;10739;52.198;20.908;2023-03-31T13:33:13;98800.00;;;17.90
45850;BMP180;10739;52.198;20.908;2023-03-31T13:35:50;98791.00;;;18.20
45850;BMP180;10739;52.198;20.908;2023-03-31T13:53:02;98770.00;;;18.70
45850;BMP180;10739;52.198;20.908;2023-03-31T13:58:47;98757.00;;;18.50
45850;BMP180;10739;52.198;20.908;2023-03-31T14:07:48;98740.00;;;20.00
45850;BMP180;10739;52.198;20.908;2023-03-31T14:10:42;98737.00;;;19.90
45850;BMP180;10739;52.198;20.908;2023-03-31T14:13:18;98744.00;;;20.00
45850;BMP180;10739;52.198;20.908;2023-03-31T14:15:57;98725.00;;;20.00
45850;BMP180;10739;52.198;20.908;2023-03-31T14:18:29;98732.00;;;19.10
45850;BMP180;10739;52.198;20.908;2023-03-31T14:21:46;98730.00;;;18.80
45850;BMP180;10739;52.198;20.908;2023-03-31T14:25:03;98726.00;;;19.30
45850;BMP180;10739;52.198;20.908;2023-03-31T14:27:52;98723.00;;;19.10
45850;BMP180;10739;52.198;20.908;2023-03-31T14:33:38;98727.00;;;19.30
45850;BMP180;10739;52.198;20.908;2023-03-31T14:39:05;98717.00;;;18.70
45850;BMP180;10739;52.198;20.908;2023-03-31T14:41:34;98717.00;;;18.70
45850;BMP180;10739;52.198;20.908;2023-03-31T14:44:06;98707.00;;;18.60
45850;BMP180;10739;52.198;20.908;2023-03-31T14:46:37;98714.00;;;18.60
45850;BMP180;10739;52.198;20.908;2023-03-31T14:49:25;98707.00;;;18.80
45850;BMP180;10739;52.198;20.908;2023-03-31T14:51:54;98706.00;;;18.60
45850;BMP180;10739;52.198;20.908;2023-03-31T14:54:23;98703.00;;;18.70
45850;BMP180;10739;52.198;20.908;2023-03-31T14:56:57;98702.00;;;18.90
45850;BMP180;10739;52.198;20.908;2023-03-31T14:59:30;98703.00;;;19.00
45850;BMP180;10739;52.198;20.908;2023-03-31T15:02:01;98702.00;;;18.70
45850;BMP180;10739;52.198;20.908;2023-03-31T15:04:34;98705.00;;;18.40
45850;BMP180;10739;52.198;20.908;2023-03-31T15:07:11;98705.00;;;17.80
45850;BMP180;10739;52.198;20.908;2023-03-31T15:09:38;98701.00;;;17.70
45850;BMP180;10739;52.198;20.908;2023-03-31T15:12:14;98691.00;;;18.20
45850;BMP180;10739;52.198;20.908;2023-03-31T15:14:54;98689.00;;;17.60
45850;BMP180;10739;52.198;20.908;2023-03-31T15:17:27;98698.00;;;17.20
45850;BMP180;10739;52.198;20.908;2023-03-31T15:19:57;98702.00;;;17.10
45850;BMP180;10739;52.198;20.908;2023-03-31T15:22:28;98714.00;;;16.80
45850;BMP180;10739;52.198;20.908;2023-03-31T15:24:55;98710.00;;;15.70
45850;BMP180;10739;52.198;20.908;2023-03-31T15:27:35;98725.00;;;15.00
45850;BMP180;10739;52.198;20.908;2023-03-31T15:30:11;98709.00;;;14.80
45850;BMP180;10739;52.198;20.908;2023-03-31T15:32:39;98726.00;;;14.70
45850;BMP180;10739;52.198;20.908;2023-03-31T15:35:40;98705.00;;;14.30
45850;BMP180;10739;52.198;20.908;2023-03-31T15:38:13;98713.00;;;14.60
45850;BMP180;10739;52.198;20.908;2023-03-31T15:40:53;98715.00;;;14.10
45850;BMP180;10739;52.198;20.908;2023-03-31T15:46:15;98690.00;;;14.20
45850;BMP180;10739;52.198;20.908;2023-03-31T15:48:52;98675.00;;;14.20
45850;BMP180;10739;52.198;20.908;2023-03-31T15:51:35;98677.00;;;14.70
45850;BMP180;10739;52.198;20.908;2023-03-31T15:54:02;98670.00;;;14.70
45850;BMP180;10739;52.198;20.908;2023-03-31T15:56:41;98663.00;;;14.70
45850;BMP180;10739;52.198;20.908;2023-03-31T15:59:23;98668.00;;;14.60
45850;BMP180;10739;52.198;20.908;2023-03-31T16:01:52;98668.00;;;14.50
45850;BMP180;10739;52.198;20.908;2023-03-31T16:04:19;98656.00;;;14.80
45850;BMP180;10739;52.198;20.908;2023-03-31T16:07:04;98659.00;;;14.90
45850;BMP180;10739;52.198;20.908;2023-03-31T16:09:54;98656.00;;;14.40
45850;BMP180;10739;52.198;20.908;2023-03-31T16:12:39;98655.00;;;14.90
45850;BMP180;10739;52.198;20.908;2023-03-31T16:15:15;98643.00;;;14.90
45850;BMP180;10739;52.198;20.908;2023-03-31T16:17:53;98644.00;;;14.70
45850;BMP180;10739;52.198;20.908;2023-03-31T16:20:27;98643.00;;;14.40
45850;BMP180;10739;52.198;20.908;2023-03-31T16:22:57;98652.00;;;14.20
45850;BMP180;10739;52.198;20.908;2023-03-31T16:25:27;98648.00;;;14.30
45850;BMP180;10739;52.198;20.908;2023-03-31T16:27:59;98638.00;;;14.30
45850;BMP180;10739;52.198;20.908;2023-03-31T16:30:40;98643.00;;;14.50
45850;BMP180;10739;52.198;20.908;2023-03-31T16:33:10;98636.00;;;14.20
45850;BMP180;10739;52.198;20.908;2023-03-31T16:35:47;98632.00;;;14.30
45850;BMP180;10739;52.198;20.908;2023-03-31T16:38:17;98629.00;;;14.40
45850;BMP180;10739;52.198;20.908;2023-03-31T16:40:49;98622.00;;;14.50
45850;BMP180;10739;52.198;20.908;2023-03-31T16:45:49;98621.00;;;14.60
45850;BMP180;10739;52.198;20.908;2023-03-31T16:48:18;98604.00;;;14.70
45850;BMP180;10739;52.198;20.908;2023-03-31T16:50:47;98607.00;;;14.70
45850;BMP180;10739;52.198;20.908;2023-03-31T16:53:16;98615.00;;;14.20
45850;BMP180;10739;52.198;20.908;2023-03-31T16:55:43;98613.00;;;14.60
45850;BMP180;10739;52.198;20.908;2023-03-31T16:58:10;98608.00;;;14.60
45850;BMP180;10739;52.198;20.908;2023-03-31T17:00:38;98608.00;;;14.40
45850;BMP180;10739;52.198;20.908;2023-03-31T17:03:07;98595.00;;;15.00
45850;BMP180;10739;52.198;20.908;2023-03-31T17:05:40;98597.00;;;14.80
45850;BMP180;10739;52.198;20.908;2023-03-31T17:08:11;98608.00;;;14.70
45850;BMP180;10739;52.198;20.908;2023-03-31T17:10:41;98604.00;;;14.60
45850;BMP180;10739;52.198;20.908;2023-03-31T17:13:08;98598.00;;;14.70
45850;BMP180;10739;52.198;20.908;2023-03-31T17:15:35;98590.00;;;15.00
45850;BMP180;10739;52.198;20.908;2023-03-31T17:18:02;98594.00;;;15.20